Time,TemperatureF,DewpointF,PressureIn,WindDirection,WindDirectionDegrees,WindSpeedMPH,WindSpeedGustMPH,Humidity,HourlyPrecipIn,Conditions,Clouds,dailyrainin,SoftwareType,DateUTC
2013-05-15 00:07:00,59.0,35.0,30.08,WNW,286,0.0,-999.0,41,-99.99,,,0.00,weatherlink.com 1.10,2013-05-15 07:07:00,
2013-05-15 00:22:00,61.1,36.0,30.08,NNE,19,0.0,-999.0,39,-99.99,,,0.00,weatherlink.com 1.10,2013-05-15 07:22:00,
2013-05-15 00:37:00,63.3,36.0,30.07,NE,40,0.0,-999.0,36,-99.99,,,0.00,weatherlink.com 1.10,2013-05-15 07:37:00,
2013-05-15 00:52:00,64.4,35.0,30.07,NE,40,0.0,-999.0,33,-99.99,,,0.00,weatherlink.com 1.10,2013-05-15 07:52:00,
2013-05-15 01:07:00,63.9,32.0,30.07,NE,40,0.0,-999.0,30,-99.99,,,0.00,weatherlink.com 1.10,2013-05-15 08:07:00,
2013-05-15 01:22:00,62.8,31.0,30.07,NE,40,0.0,-999.0,30,-99.99,,,0.00,weatherlink.com 1.10,2013-05-15 08:22:00,
2013-05-15 01:37:00,62.3,33.0,30.07,NE,40,2.0,-999.0,33,-99.99,,,0.00,weatherlink.com 1.10,2013-05-15 08:37:00,
2013-05-15 01:52:00,61.4,30.0,30.07,NNE,32,0.0,-999.0,31,-99.99,,,0.00,weatherlink.com 1.10,2013-05-15 08:52:00,
2013-05-15 02:07:00,61.2,29.0,30.06,NE,47,0.0,-999.0,29,-99.99,,,0.00,weatherlink.com 1.10,2013-05-15 09:07:00,
2013-05-15 02:22:00,61.6,28.0,30.06,NE,47,0.0,-999.0,28,-99.99,,,0.00,weatherlink.com 1.10,2013-05-15 09:22:00,
2013-05-15 02:37:00,62.2,28.0,30.05,WSW,254,0.0,-999.0,27,-99.99,,,0.00,weatherlink.com 1.10,2013-05-15 09:37:00,
2013-05-15 02:52:00,62.5,27.0,30.05,West,277,0.0,-999.0,26,-99.99,,,0.00,weatherlink.com 1.10,2013-05-15 09:52:00,
2013-05-15 03:07:00,62.5,28.0,30.05,West,278,0.0,-999.0,27,-99.99,,,0.00,weatherlink.com 1.10,2013-05-15 10:07:00,
2013-05-15 03:22:00,62.2,26.0,30.05,WNW,284,0.0,-999.0,25,-99.99,,,0.00,weatherlink.com 1.10,2013-05-15 10:22:00,
2013-05-15 03:37:00,62.3,27.0,30.05,WNW,288,0.0,-999.0,26,-99.99,,,0.00,weatherlink.com 1.10,2013-05-15 10:37:00,
2013-05-15 03:52:00,62.2,26.0,30.05,WNW,288,0.0,-999.0,25,-99.99,,,0.00,weatherlink.com 1.10,2013-05-15 10:52:00,
2013-05-15 04:07:00,61.9,26.0,30.04,WNW,288,0.0,-999.0,26,-99.99,,,0.00,weatherlink.com 1.10,2013-05-15 11:07:00,
2013-05-15 04:22:00,61.8,26.0,30.04,NNW,338,0.0,-999.0,26,-99.99,,,0.00,weatherlink.com 1.10,2013-05-15 11:22:00,
2013-05-15 04:37:00,61.5,27.0,30.04,NNW,342,0.0,-999.0,27,-99.99,,,0.00,weatherlink.com 1.10,2013-05-15 11:37:00,
2013-05-15 04:52:00,61.6,28.0,30.04,SSW,203,0.0,-999.0,28,-99.99,,,0.00,weatherlink.com 1.10,2013-05-15 11:52:00,
2013-05-15 05:07:00,61.6,26.0,30.05,SE,145,0.0,-999.0,26,-99.99,,,0.00,weatherlink.com 1.10,2013-05-15 12:07:00,
2013-05-15 05:22:00,62.1,27.0,30.05,NE,42,0.0,-999.0,26,-99.99,,,0.00,weatherlink.com 1.10,2013-05-15 12:22:00,
2013-05-15 05:37:00,61.6,26.0,30.05,NE,42,0.0,-999.0,26,-99.99,,,0.00,weatherlink.com 1.10,2013-05-15 12:37:00,
2013-05-15 05:52:00,61.4,26.0,30.05,NE,42,0.0,-999.0,26,-99.99,,,0.00,weatherlink.com 1.10,2013-05-15 12:52:00,
2013-05-15 06:07:00,61.3,29.0,30.05,NE,42,0.0,-999.0,29,-99.99,,,0.00,weatherlink.com 1.10,2013-05-15 13:07:00,
2013-05-15 06:22:00,60.9,27.0,30.06,West,278,0.0,-999.0,28,-99.99,,,0.00,weatherlink.com 1.10,2013-05-15 13:22:00,
2013-05-15 06:37:00,60.4,29.0,30.07,WNW,284,0.0,-999.0,30,-99.99,,,0.00,weatherlink.com 1.10,2013-05-15 13:37:00,
2013-05-15 06:52:00,59.8,27.0,30.07,NW,321,0.0,-999.0,29,-99.99,,,0.00,weatherlink.com 1.10,2013-05-15 13:52:00,
2013-05-15 07:07:00,59.7,28.0,30.07,NW,321,0.0,-999.0,30,-99.99,,,0.00,weatherlink.com 1.10,2013-05-15 14:07:00,
2013-05-15 08:07:00,62.2,34.0,30.07,NE,46,0.0,-999.0,35,-99.99,,,0.00,weatherlink.com 1.10,2013-05-15 15:07:00,
2013-05-15 08:22:00,62.8,39.0,30.07,ENE,68,0.0,-999.0,42,-99.99,,,0.00,weatherlink.com 1.10,2013-05-15 15:22:00,
2013-05-15 08:37:00,63.2,40.0,30.08,ENE,68,0.0,-999.0,42,-99.99,,,0.00,weatherlink.com 1.10,2013-05-15 15:37:00,
2013-05-15 08:52:00,61.4,41.0,30.08,ENE,68,0.0,-999.0,47,-99.99,,,0.00,weatherlink.com 1.10,2013-05-15 15:52:00,
2013-05-15 09:07:00,60.5,42.0,30.09,ENE,70,0.0,-999.0,51,-99.99,,,0.00,weatherlink.com 1.10,2013-05-15 16:07:00,
2013-05-15 09:22:00,58.4,44.0,30.09,ENE,69,0.0,-999.0,60,-99.99,,,0.00,weatherlink.com 1.10,2013-05-15 16:22:00,
2013-05-15 09:52:00,59.9,48.0,30.09,ESE,105,0.0,-999.0,65,-99.99,,,0.00,weatherlink.com 1.10,2013-05-15 16:52:00,
2013-05-15 10:07:00,60.1,49.0,30.09,ESE,106,0.0,-999.0,67,-99.99,,,0.00,weatherlink.com 1.10,2013-05-15 17:07:00,
2013-05-15 10:22:00,61.8,49.0,30.09,SSE,162,0.0,-999.0,63,-99.99,,,0.00,weatherlink.com 1.10,2013-05-15 17:22:00,
2013-05-15 10:37:00,60.8,49.0,30.09,South,179,0.0,-999.0,65,-99.99,,,0.00,weatherlink.com 1.10,2013-05-15 17:37:00,
2013-05-15 10:52:00,62.5,48.0,30.10,SSE,159,0.0,-999.0,60,-99.99,,,0.00,weatherlink.com 1.10,2013-05-15 17:52:00,
2013-05-15 11:07:00,61.9,49.0,30.10,SSE,159,0.0,-999.0,63,-99.99,,,0.00,weatherlink.com 1.10,2013-05-15 18:07:00,
2013-05-15 11:22:00,61.1,49.0,30.10,SSE,163,0.0,-999.0,65,-99.99,,,0.00,weatherlink.com 1.10,2013-05-15 18:22:00,
2013-05-15 11:37:00,59.9,49.0,30.10,South,187,0.0,-999.0,67,-99.99,,,0.00,weatherlink.com 1.10,2013-05-15 18:37:00,
2013-05-15 11:52:00,62.4,50.0,30.10,South,187,0.0,-999.0,64,-99.99,,,0.00,weatherlink.com 1.10,2013-05-15 18:52:00,
2013-05-15 12:07:00,62.2,50.0,30.10,South,191,0.0,-999.0,65,-99.99,,,0.00,weatherlink.com 1.10,2013-05-15 19:07:00,
2013-05-15 12:22:00,62.7,49.0,30.10,SSW,194,0.0,-999.0,62,-99.99,,,0.00,weatherlink.com 1.10,2013-05-15 19:22:00,
2013-05-15 12:37:00,63.2,50.0,30.09,SSW,207,0.0,-999.0,62,-99.99,,,0.00,weatherlink.com 1.10,2013-05-15 19:37:00,
2013-05-15 12:52:00,64.2,50.0,30.09,SW,232,1.0,-999.0,61,-99.99,,,0.00,weatherlink.com 1.10,2013-05-15 19:52:00,
2013-05-15 13:07:00,64.2,49.0,30.09,SW,232,0.0,-999.0,58,-99.99,,,0.00,weatherlink.com 1.10,2013-05-15 20:07:00,
2013-05-15 13:21:00,64.3,49.0,30.09,SW,236,0.0,-999.0,59,-99.99,,,0.00,weatherlink.com 1.10,2013-05-15 20:21:00,
2013-05-15 13:51:00,62.5,50.0,30.09,WSW,248,0.0,-999.0,63,-99.99,,,0.00,weatherlink.com 1.10,2013-05-15 20:51:00,
2013-05-15 14:06:00,64.3,50.0,30.09,WSW,250,0.0,-999.0,61,-99.99,,,0.00,weatherlink.com 1.10,2013-05-15 21:06:00,
2013-05-15 14:22:00,64.1,49.0,30.09,WSW,252,0.0,-999.0,59,-99.99,,,0.00,weatherlink.com 1.10,2013-05-15 21:22:00,
2013-05-15 14:37:00,65.6,49.0,30.09,WSW,252,0.0,-999.0,56,-99.99,,,0.00,weatherlink.com 1.10,2013-05-15 21:37:00,
2013-05-15 14:52:00,65.6,50.0,30.08,WSW,252,0.0,-999.0,57,-99.99,,,0.00,weatherlink.com 1.10,2013-05-15 21:52:00,
2013-05-15 15:07:00,64.9,50.0,30.08,WSW,250,0.0,-999.0,58,-99.99,,,0.00,weatherlink.com 1.10,2013-05-15 22:07:00,
2013-05-15 15:22:00,65.9,51.0,30.07,WSW,250,1.0,-999.0,58,-99.99,,,0.00,weatherlink.com 1.10,2013-05-15 22:22:00,
2013-05-15 15:37:00,66.5,51.0,30.07,WSW,237,1.0,-999.0,57,-99.99,,,0.00,weatherlink.com 1.10,2013-05-15 22:37:00,
2013-05-15 15:52:00,64.8,49.0,30.06,SW,229,0.0,-999.0,58,-99.99,,,0.00,weatherlink.com 1.10,2013-05-15 22:52:00,
2013-05-15 16:07:00,66.2,51.0,30.06,WSW,237,0.0,-999.0,58,-99.99,,,0.00,weatherlink.com 1.10,2013-05-15 23:07:00,
2013-05-15 16:22:00,67.6,51.0,30.06,WSW,240,0.0,-999.0,56,-99.99,,,0.00,weatherlink.com 1.10,2013-05-15 23:22:00,
2013-05-15 16:52:00,68.3,50.0,30.05,WSW,245,0.0,-999.0,53,-99.99,,,0.00,weatherlink.com 1.10,2013-05-15 23:52:00,
2013-05-15 17:07:00,69.5,51.0,30.05,WSW,244,2.0,-999.0,53,-99.99,,,0.00,weatherlink.com 1.10,2013-05-16 00:07:00,
2013-05-15 17:36:00,67.6,51.0,30.04,WSW,244,0.0,-999.0,55,-99.99,,,0.00,weatherlink.com 1.10,2013-05-16 00:36:00,
2013-05-15 18:21:00,66.5,47.0,30.03,SW,226,0.0,-999.0,50,-99.99,,,0.00,weatherlink.com 1.10,2013-05-16 01:21:00,
2013-05-15 18:51:00,67.4,46.0,30.02,SSE,164,0.0,-999.0,46,-99.99,,,0.00,weatherlink.com 1.10,2013-05-16 01:51:00,
2013-05-15 19:21:00,66.9,40.0,30.02,ENE,59,0.0,-999.0,38,-99.99,,,0.00,weatherlink.com 1.10,2013-05-16 02:21:00,
2013-05-15 19:51:00,66.0,41.0,30.02,North,355,0.0,-999.0,40,-99.99,,,0.00,weatherlink.com 1.10,2013-05-16 02:51:00,
2013-05-15 20:21:00,64.0,40.0,30.03,NE,53,0.0,-999.0,41,-99.99,,,0.00,weatherlink.com 1.10,2013-05-16 03:21:00,
2013-05-15 20:51:00,64.0,39.0,30.03,ENE,57,2.0,-999.0,40,-99.99,,,0.00,weatherlink.com 1.10,2013-05-16 03:51:00,
2013-05-15 21:07:00,64.0,40.0,30.04,NNW,333,0.0,-999.0,41,-99.99,,,0.00,weatherlink.com 1.10,2013-05-16 04:07:00,
2013-05-15 21:22:00,64.4,40.0,30.03,East,88,0.0,-999.0,41,-99.99,,,0.00,weatherlink.com 1.10,2013-05-16 04:22:00,
2013-05-15 21:37:00,63.7,39.0,30.04,ENE,57,0.0,-999.0,41,-99.99,,,0.00,weatherlink.com 1.10,2013-05-16 04:37:00,
2013-05-15 21:52:00,63.5,40.0,30.04,NE,34,0.0,-999.0,42,-99.99,,,0.00,weatherlink.com 1.10,2013-05-16 04:52:00,
2013-05-15 22:07:00,63.8,40.0,30.04,NNE,22,0.0,-999.0,42,-99.99,,,0.00,weatherlink.com 1.10,2013-05-16 05:07:00,
2013-05-15 22:22:00,63.6,40.0,30.04,ESE,108,0.0,-999.0,42,-99.99,,,0.00,weatherlink.com 1.10,2013-05-16 05:22:00,
2013-05-15 22:37:00,63.7,40.0,30.04,NE,46,0.0,-999.0,42,-99.99,,,0.00,weatherlink.com 1.10,2013-05-16 05:37:00,
2013-05-15 23:07:00,63.9,41.0,30.04,ENE,72,0.0,-999.0,43,-99.99,,,0.00,weatherlink.com 1.10,2013-05-16 06:07:00,
2013-05-15 23:22:00,63.3,40.0,30.03,ENE,72,0.0,-999.0,43,-99.99,,,0.00,weatherlink.com 1.10,2013-05-16 06:22:00,
2013-05-15 23:37:00,63.2,40.0,30.03,ESE,107,0.0,-999.0,43,-99.99,,,0.00,weatherlink.com 1.10,2013-05-16 06:37:00,
2013-05-15 23:52:00,63.1,39.0,30.03,East,86,0.0,-999.0,42,-99.99,,,0.00,weatherlink.com 1.10,2013-05-16 06:52:00,